sensor_id;sensor_type;location;lat;lon;timestamp;temperature;humidity
35258;DHT22;21385;50.878;8.050;2023-03-01T00:02:17;-0.80;99.90
35258;DHT22;21385;50.878;8.050;2023-03-01T00:04:42;-0.90;99.90
35258;DHT22;21385;50.878;8.050;2023-03-01T00:07:08;-0.90;99.90
35258;DHT22;21385;50.878;8.050;2023-03-01T00:09:35;-0.90;99.90
35258;DHT22;21385;50.878;8.050;2023-03-01T00:12:00;-1.00;99.90
35258;DHT22;21385;50.878;8.050;2023-03-01T00:14:26;-1.00;99.90
35258;DHT22;21385;50.878;8.050;2023-03-01T00:16:52;-1.00;99.90
35258;DHT22;21385;50.878;8.050;2023-03-01T00:19:19;-1.10;99.90
35258;DHT22;21385;50.878;8.050;2023-03-01T00:21:45;-1.00;99.90
35258;DHT22;21385;50.878;8.050;2023-03-01T00:24:11;-1.00;99.90
35258;DHT22;21385;50.878;8.050;2023-03-01T00:26:37;-1.00;99.90
35258;DHT22;21385;50.878;8.050;2023-03-01T00:29:03;-1.00;99.90
35258;DHT22;21385;50.878;8.050;2023-03-01T00:31:31;-1.00;99.90
35258;DHT22;21385;50.878;8.050;2023-03-01T00:33:59;-1.10;99.90
35258;DHT22;21385;50.878;8.050;2023-03-01T00:36:28;-1.10;99.90
35258;DHT22;21385;50.878;8.050;2023-03-01T00:38:54;-1.10;99.90
35258;DHT22;21385;50.878;8.050;2023-03-01T00:41:20;-1.10;99.90
35258;DHT22;21385;50.878;8.050;2023-03-01T00:43:49;-1.10;99.90
35258;DHT22;21385;50.878;8.050;2023-03-01T00:46:20;-1.10;99.90
35258;DHT22;21385;50.878;8.050;2023-03-01T00:48:46;-1.10;99.90
35258;DHT22;21385;50.878;8.050;2023-03-01T00:51:17;-1.10;99.90
35258;DHT22;21385;50.878;8.050;2023-03-01T00:53:44;-1.10;99.90
35258;DHT22;21385;50.878;8.050;2023-03-01T00:56:12;-1.10;99.90
35258;DHT22;21385;50.878;8.050;2023-03-01T00:58:38;-1.10;99.90
35258;DHT22;21385;50.878;8.050;2023-03-01T01:01:16;-1.10;99.90
35258;DHT22;21385;50.878;8.050;2023-03-01T01:03:54;-1.10;99.90
35258;DHT22;21385;50.878;8.050;2023-03-01T01:06:22;-1.00;99.90
35258;DHT22;21385;50.878;8.050;2023-03-01T01:08:49;-1.10;99.90
35258;DHT22;21385;50.878;8.050;2023-03-01T01:11:15;-1.00;99.90
35258;DHT22;21385;50.878;8.050;2023-03-01T01:13:41;-1.00;99.90
35258;DHT22;21385;50.878;8.050;2023-03-01T01:16:08;-1.00;99.90
35258;DHT22;21385;50.878;8.050;2023-03-01T01:18:34;-1.00;99.90
35258;DHT22;21385;50.878;8.050;2023-03-01T01:21:07;-1.10;99.90
35258;DHT22;21385;50.878;8.050;2023-03-01T01:23:34;-1.10;99.90
35258;DHT22;21385;50.878;8.050;2023-03-01T01:26:08;-1.10;99.90
35258;DHT22;21385;50.878;8.050;2023-03-01T01:28:34;-1.20;99.90
35258;DHT22;21385;50.878;8.050;2023-03-01T01:31:00;-1.20;99.90
35258;DHT22;21385;50.878;8.050;2023-03-01T01:33:26;-1.20;99.90
35258;DHT22;21385;50.878;8.050;2023-03-01T01:35:52;-1.20;99.90
35258;DHT22;21385;50.878;8.050;2023-03-01T01:38:17;-1.30;99.90
35258;DHT22;21385;50.878;8.050;2023-03-01T01:40:46;-1.30;99.90
35258;DHT22;21385;50.878;8.050;2023-03-01T01:43:25;-1.30;99.90
35258;DHT22;21385;50.878;8.050;2023-03-01T01:46:05;-1.30;99.90
35258;DHT22;21385;50.878;8.050;2023-03-01T01:48:40;-1.30;99.90
35258;DHT22;21385;50.878;8.050;2023-03-01T01:51:13;-1.30;99.90
35258;DHT22;21385;50.878;8.050;2023-03-01T01:53:40;-1.30;99.90
35258;DHT22;21385;50.878;8.050;2023-03-01T01:56:08;-1.30;99.90
35258;DHT22;21385;50.878;8.050;2023-03-01T01:58:36;-1.30;99.90
35258;DHT22;21385;50.878;8.050;2023-03-01T02:01:03;-1.40;99.90
35258;DHT22;21385;50.878;8.050;2023-03-01T02:03:31;-1.40;99.90
35258;DHT22;21385;50.878;8.050;2023-03-01T02:06:06;-1.40;99.90
35258;DHT22;21385;50.878;8.050;2023-03-01T02:08:35;-1.40;99.90
35258;DHT22;21385;50.878;8.050;2023-03-01T02:11:02;-1.40;99.90
35258;DHT22;21385;50.878;8.050;2023-03-01T02:13:30;-1.40;99.90
35258;DHT22;21385;50.878;8.050;2023-03-01T02:15:56;-1.50;99.90
35258;DHT22;21385;50.878;8.050;2023-03-01T02:18:23;-1.50;99.90
35258;DHT22;21385;50.878;8.050;2023-03-01T02:23:39;-1.40;99.90
35258;DHT22;21385;50.878;8.050;2023-03-01T02:26:09;-1.40;99.90
35258;DHT22;21385;50.878;8.050;2023-03-01T02:28:38;-1.40;99.90
35258;DHT22;21385;50.878;8.050;2023-03-01T02:31:07;-1.40;99.90
35258;DHT22;21385;50.878;8.050;2023-03-01T02:33:53;-1.50;99.90
35258;DHT22;21385;50.878;8.050;2023-03-01T02:36:21;-1.50;99.90
35258;DHT22;21385;50.878;8.050;2023-03-01T02:38:50;-1.50;99.90
35258;DHT22;21385;50.878;8.050;2023-03-01T02:41:17;-1.50;99.90
35258;DHT22;21385;50.878;8.050;2023-03-01T02:43:45;-1.50;99.90
35258;DHT22;21385;50.878;8.050;2023-03-01T02:46:23;-1.50;99.90
35258;DHT22;21385;50.878;8.050;2023-03-01T02:48:57;-1.50;99.90
35258;DHT22;21385;50.878;8.050;2023-03-01T02:55:17;-1.50;99.90
35258;DHT22;21385;50.878;8.050;2023-03-01T02:57:17;-1.50;99.90
35258;DHT22;21385;50.878;8.050;2023-03-01T02:59:43;-1.50;99.90
35258;DHT22;21385;50.878;8.050;2023-03-01T03:05:03;-1.50;99.90
35258;DHT22;21385;50.878;8.050;2023-03-01T03:07:30;-1.60;99.90
35258;DHT22;21385;50.878;8.050;2023-03-01T03:09:55;-1.60;99.90
35258;DHT22;21385;50.878;8.050;2023-03-01T03:12:21;-1.60;99.90
35258;DHT22;21385;50.878;8.050;2023-03-01T03:14:46;-1.60;99.90
35258;DHT22;21385;50.878;8.050;2023-03-01T03:17:12;-1.60;99.90
35258;DHT22;21385;50.878;8.050;2023-03-01T03:19:38;-1.60;99.90
35258;DHT22;21385;50.878;8.050;2023-03-01T03:22:03;-1.70;99.90
35258;DHT22;21385;50.878;8.050;2023-03-01T03:24:29;-1.70;99.90
35258;DHT22;21385;50.878;8.050;2023-03-01T03:27:06;-1.70;99.90
35258;DHT22;21385;50.878;8.050;2023-03-01T03:29:32;-1.60;99.90
35258;DHT22;21385;50.878;8.050;2023-03-01T03:31:57;-1.60;99.90
35258;DHT22;21385;50.878;8.050;2023-03-01T03:34:23;-1.60;99.90
35258;DHT22;21385;50.878;8.050;2023-03-01T03:36:53;-1.60;99.90
35258;DHT22;21385;50.878;8.050;2023-03-01T03:39:31;-1.70;99.90
35258;DHT22;21385;50.878;8.050;2023-03-01T03:42:00;-1.70;99.90
35258;DHT22;21385;50.878;8.050;2023-03-01T03:44:26;-1.70;99.90
35258;DHT22;21385;50.878;8.050;2023-03-01T03:46:51;-1.80;99.90
35258;DHT22;21385;50.878;8.050;2023-03-01T03:49:17;-1.80;99.90
35258;DHT22;21385;50.878;8.050;2023-03-01T03:51:45;-1.80;99.90
35258;DHT22;21385;50.878;8.050;2023-03-01T03:54:10;-1.80;99.90
35258;DHT22;21385;50.878;8.050;2023-03-01T03:56:36;-1.90;99.90
35258;DHT22;21385;50.878;8.050;2023-03-01T03:59:02;-1.80;99.90
35258;DHT22;21385;50.878;8.050;2023-03-01T04:01:27;-1.80;99.90
35258;DHT22;21385;50.878;8.050;2023-03-01T04:03:53;-1.80;99.90
35258;DHT22;21385;50.878;8.050;2023-03-01T04:06:20;-1.80;99.90
35258;DHT22;21385;50.878;8.050;2023-03-01T04:08:46;-1.80;99.90
35258;DHT22;21385;50.878;8.050;2023-03-01T04:11:11;-1.90;99.90
35258;DHT22;21385;50.878;8.050;2023-03-01T04:13:53;-1.90;99.90
35258;DHT22;21385;50.878;8.050;2023-03-01T04:16:19;-1.90;99.90
35258;DHT22;21385;50.878;8.050;2023-03-01T04:18:46;-1.90;99.90
35258;DHT22;21385;50.878;8.050;2023-03-01T04:21:12;-1.90;99.90
35258;DHT22;21385;50.878;8.050;2023-03-01T04:23:38;-2.00;99.90
35258;DHT22;21385;50.878;8.050;2023-03-01T04:26:06;-2.00;99.90
35258;DHT22;21385;50.878;8.050;2023-03-01T04:28:37;-2.00;99.90
35258;DHT22;21385;50.878;8.050;2023-03-01T04:31:12;-2.00;99.90
35258;DHT22;21385;50.878;8.050;2023-03-01T04:33:43;-2.10;99.90
35258;DHT22;21385;50.878;8.050;2023-03-01T04:36:09;-2.20;99.90
35258;DHT22;21385;50.878;8.050;2023-03-01T04:38:36;-2.20;99.90
35258;DHT22;21385;50.878;8.050;2023-03-01T04:41:05;-2.20;99.90
35258;DHT22;21385;50.878;8.050;2023-03-01T04:43:30;-2.30;99.90
35258;DHT22;21385;50.878;8.050;2023-03-01T04:46:01;-2.30;99.90
35258;DHT22;21385;50.878;8.050;2023-03-01T04:48:28;-2.30;99.90
35258;DHT22;21385;50.878;8.050;2023-03-01T04:50:53;-2.20;99.90
35258;DHT22;21385;50.878;8.050;2023-03-01T04:53:19;-2.30;99.90
35258;DHT22;21385;50.878;8.050;2023-03-01T04:55:45;-2.20;99.90
35258;DHT22;21385;50.878;8.050;2023-03-01T04:58:10;-2.20;99.90
35258;DHT22;21385;50.878;8.050;2023-03-01T05:00:36;-2.30;99.90
35258;DHT22;21385;50.878;8.050;2023-03-01T05:03:01;-2.20;99.90
35258;DHT22;21385;50.878;8.050;2023-03-01T05:05:34;-2.20;99.90
35258;DHT22;21385;50.878;8.050;2023-03-01T05:08:02;-2.20;99.90
35258;DHT22;21385;50.878;8.050;2023-03-01T05:10:30;-2.20;99.90
35258;DHT22;21385;50.878;8.050;2023-03-01T05:12:57;-2.20;99.90
35258;DHT22;21385;50.878;8.050;2023-03-01T05:15:24;-2.20;99.90
35258;DHT22;21385;50.878;8.050;2023-03-01T05:17:54;-2.20;99.90
35258;DHT22;21385;50.878;8.050;2023-03-01T05:20:21;-2.20;99.90
35258;DHT22;21385;50.878;8.050;2023-03-01T05:22:55;-2.30;99.90
35258;DHT22;21385;50.878;8.050;2023-03-01T05:25:21;-2.30;99.90
35258;DHT22;21385;50.878;8.050;2023-03-01T05:27:47;-2.20;99.90
35258;DHT22;21385;50.878;8.050;2023-03-01T05:30:13;-2.30;99.90
35258;DHT22;21385;50.878;8.050;2023-03-01T05:32:44;-2.20;99.90
35258;DHT22;21385;50.878;8.050;2023-03-01T05:35:14;-2.20;99.90
35258;DHT22;21385;50.878;8.050;2023-03-01T05:37:42;-2.30;99.90
35258;DHT22;21385;50.878;8.050;2023-03-01T05:40:10;-2.30;99.90
35258;DHT22;21385;50.878;8.050;2023-03-01T05:42:42;-2.20;99.90
35258;DHT22;21385;50.878;8.050;2023-03-01T05:45:09;-2.30;99.90
35258;DHT22;21385;50.878;8.050;2023-03-01T05:47:41;-2.30;99.90
35258;DHT22;21385;50.878;8.050;2023-03-01T05:52:36;-2.30;99.90
35258;DHT22;21385;50.878;8.050;2023-03-01T05:55:01;-2.30;99.90
35258;DHT22;21385;50.878;8.050;2023-03-01T05:57:28;-2.30;99.90
35258;DHT22;21385;50.878;8.050;2023-03-01T05:59:54;-2.30;99.90
35258;DHT22;21385;50.878;8.050;2023-03-01T06:02:19;-2.30;99.90
35258;DHT22;21385;50.878;8.050;2023-03-01T06:04:45;-2.30;99.90
35258;DHT22;21385;50.878;8.050;2023-03-01T06:07:11;-2.30;99.90
35258;DHT22;21385;50.878;8.050;2023-03-01T06:09:36;-2.40;99.90
35258;DHT22;21385;50.878;8.050;2023-03-01T06:12:02;-2.40;99.90
35258;DHT22;21385;50.878;8.050;2023-03-01T06:14:27;-2.40;99.90
35258;DHT22;21385;50.878;8.050;2023-03-01T06:16:53;-2.30;99.90
35258;DHT22;21385;50.878;8.050;2023-03-01T06:19:18;-2.30;99.90
35258;DHT22;21385;50.878;8.050;2023-03-01T06:21:44;-2.30;99.90
35258;DHT22;21385;50.878;8.050;2023-03-01T06:24:10;-2.20;99.90
35258;DHT22;21385;50.878;8.050;2023-03-01T06:26:35;-2.20;99.90
35258;DHT22;21385;50.878;8.050;2023-03-01T06:29:01;-2.10;99.90
35258;DHT22;21385;50.878;8.050;2023-03-01T06:31:26;-2.10;99.90
35258;DHT22;21385;50.878;8.050;2023-03-01T06:33:52;-2.20;99.90
35258;DHT22;21385;50.878;8.050;2023-03-01T06:36:17;-2.20;99.90
35258;DHT22;21385;50.878;8.050;2023-03-01T06:38:44;-2.10;99.90
35258;DHT22;21385;50.878;8.050;2023-03-01T06:41:09;-2.20;99.90
35258;DHT22;21385;50.878;8.050;2023-03-01T06:43:35;-2.20;99.90
35258;DHT22;21385;50.878;8.050;2023-03-01T06:46:04;-2.10;99.90
35258;DHT22;21385;50.878;8.050;2023-03-01T06:48:30;-2.10;99.90
35258;DHT22;21385;50.878;8.050;2023-03-01T06:50:58;-2.00;99.90
35258;DHT22;21385;50.878;8.050;2023-03-01T06:53:24;-1.90;99.90
35258;DHT22;21385;50.878;8.050;2023-03-01T06:55:55;-1.90;99.90
35258;DHT22;21385;50.878;8.050;2023-03-01T06:58:20;-1.90;99.90
35258;DHT22;21385;50.878;8.050;2023-03-01T07:00:46;-1.90;99.90
35258;DHT22;21385;50.878;8.050;2023-03-01T07:03:11;-1.90;99.90
35258;DHT22;21385;50.878;8.050;2023-03-01T07:05:37;-1.80;99.90
35258;DHT22;21385;50.878;8.050;2023-03-01T07:08:02;-1.80;99.90
35258;DHT22;21385;50.878;8.050;2023-03-01T07:10:28;-1.70;99.90
35258;DHT22;21385;50.878;8.050;2023-03-01T07:12:55;-1.60;99.90
35258;DHT22;21385;50.878;8.050;2023-03-01T07:15:21;-1.60;99.90
35258;DHT22;21385;50.878;8.050;2023-03-01T07:17:46;-1.50;99.90
35258;DHT22;21385;50.878;8.050;2023-03-01T07:20:15;-1.40;99.90
35258;DHT22;21385;50.878;8.050;2023-03-01T07:22:41;-1.30;99.90
35258;DHT22;21385;50.878;8.050;2023-03-01T07:25:08;-1.20;99.90
35258;DHT22;21385;50.878;8.050;2023-03-01T07:27:34;-1.00;99.90
35258;DHT22;21385;50.878;8.050;2023-03-01T07:29:59;-0.90;99.90
35258;DHT22;21385;50.878;8.050;2023-03-01T07:32:25;-0.90;99.90
35258;DHT22;21385;50.878;8.050;2023-03-01T07:34:51;-0.90;99.90
35258;DHT22;21385;50.878;8.050;2023-03-01T07:37:16;-0.80;99.90
35258;DHT22;21385;50.878;8.050;2023-03-01T07:39:42;-0.80;99.90
35258;DHT22;21385;50.878;8.050;2023-03-01T07:42:08;-0.80;99.90
35258;DHT22;21385;50.878;8.050;2023-03-01T07:44:34;-0.80;99.90
35258;DHT22;21385;50.878;8.050;2023-03-01T07:47:00;-0.60;99.90
35258;DHT22;21385;50.878;8.050;2023-03-01T07:49:25;-0.60;99.90
35258;DHT22;21385;50.878;8.050;2023-03-01T07:51:54;-0.40;99.90
35258;DHT22;21385;50.878;8.050;2023-03-01T07:54:19;-0.30;99.90
35258;DHT22;21385;50.878;8.050;2023-03-01T07:56:45;-0.20;99.90
35258;DHT22;21385;50.878;8.050;2023-03-01T07:59:10;-0.10;99.90
35258;DHT22;21385;50.878;8.050;2023-03-01T08:01:36;0.00;99.90
35258;DHT22;21385;50.878;8.050;2023-03-01T08:04:01;0.10;99.90
35258;DHT22;21385;50.878;8.050;2023-03-01T08:06:27;0.30;99.90
35258;DHT22;21385;50.878;8.050;2023-03-01T08:08:53;0.50;99.90
35258;DHT22;21385;50.878;8.050;2023-03-01T08:11:20;0.70;99.90
35258;DHT22;21385;50.878;8.050;2023-03-01T08:13:48;0.90;99.90
35258;DHT22;21385;50.878;8.050;2023-03-01T08:16:14;1.00;99.90
35258;DHT22;21385;50.878;8.050;2023-03-01T08:18:41;1.20;99.90
35258;DHT22;21385;50.878;8.050;2023-03-01T08:21:15;1.40;99.90
35258;DHT22;21385;50.878;8.050;2023-03-01T08:23:42;1.50;99.90
35258;DHT22;21385;50.878;8.050;2023-03-01T08:26:10;1.60;99.90
35258;DHT22;21385;50.878;8.050;2023-03-01T08:28:38;1.70;99.90
35258;DHT22;21385;50.878;8.050;2023-03-01T08:31:33;1.80;99.90
35258;DHT22;21385;50.878;8.050;2023-03-01T08:34:02;2.00;99.90
35258;DHT22;21385;50.878;8.050;2023-03-01T08:36:32;2.10;99.90
35258;DHT22;21385;50.878;8.050;2023-03-01T08:38:58;2.20;99.90
35258;DHT22;21385;50.878;8.050;2023-03-01T08:41:24;2.30;99.90
35258;DHT22;21385;50.878;8.050;2023-03-01T08:43:49;2.40;99.90
35258;DHT22;21385;50.878;8.050;2023-03-01T08:46:16;2.50;99.90
35258;DHT22;21385;50.878;8.050;2023-03-01T08:48:41;2.50;99.90
35258;DHT22;21385;50.878;8.050;2023-03-01T08:51:13;2.60;99.90
35258;DHT22;21385;50.878;8.050;2023-03-01T08:53:39;2.70;99.90
35258;DHT22;21385;50.878;8.050;2023-03-01T08:56:05;2.80;99.90
35258;DHT22;21385;50.878;8.050;2023-03-01T08:58:32;2.90;99.90
35258;DHT22;21385;50.878;8.050;2023-03-01T09:00:57;3.10;99.90
35258;DHT22;21385;50.878;8.050;2023-03-01T09:03:24;3.10;99.90
35258;DHT22;21385;50.878;8.050;2023-03-01T09:05:50;3.20;99.90
35258;DHT22;21385;50.878;8.050;2023-03-01T09:08:17;3.20;99.90
35258;DHT22;21385;50.878;8.050;2023-03-01T09:10:42;3.30;99.90
35258;DHT22;21385;50.878;8.050;2023-03-01T09:13:08;3.50;99.90
35258;DHT22;21385;50.878;8.050;2023-03-01T09:15:36;3.60;99.90
35258;DHT22;21385;50.878;8.050;2023-03-01T09:18:02;3.70;99.90
35258;DHT22;21385;50.878;8.050;2023-03-01T09:20:28;3.80;99.90
35258;DHT22;21385;50.878;8.050;2023-03-01T09:32:38;4.50;99.90
35258;DHT22;21385;50.878;8.050;2023-03-01T09:35:08;4.60;99.90
35258;DHT22;21385;50.878;8.050;2023-03-01T09:37:35;4.80;99.90
35258;DHT22;21385;50.878;8.050;2023-03-01T09:40:01;5.00;99.90
35258;DHT22;21385;50.878;8.050;2023-03-01T09:42:28;5.10;99.20
35258;DHT22;21385;50.878;8.050;2023-03-01T09:47:31;5.40;99.30
35258;DHT22;21385;50.878;8.050;2023-03-01T09:53:09;5.70;98.20
35258;DHT22;21385;50.878;8.050;2023-03-01T10:04:22;6.20;94.40
35258;DHT22;21385;50.878;8.050;2023-03-01T10:09:22;6.40;93.50
35258;DHT22;21385;50.878;8.050;2023-03-01T10:11:52;6.60;93.40
35258;DHT22;21385;50.878;8.050;2023-03-01T10:14:33;6.70;92.30
35258;DHT22;21385;50.878;8.050;2023-03-01T10:19:51;7.10;90.70
35258;DHT22;21385;50.878;8.050;2023-03-01T10:22:28;7.20;90.80
35258;DHT22;21385;50.878;8.050;2023-03-01T10:24:58;7.30;90.30
35258;DHT22;21385;50.878;8.050;2023-03-01T10:27:26;7.40;89.90
35258;DHT22;21385;50.878;8.050;2023-03-01T10:30:22;7.60;88.40
35258;DHT22;21385;50.878;8.050;2023-03-01T10:32:46;7.70;86.20
35258;DHT22;21385;50.878;8.050;2023-03-01T10:35:21;7.80;85.90
35258;DHT22;21385;50.878;8.050;2023-03-01T10:38:04;7.90;84.80
35258;DHT22;21385;50.878;8.050;2023-03-01T10:40:32;8.10;83.00
35258;DHT22;21385;50.878;8.050;2023-03-01T10:43:03;8.20;78.80
35258;DHT22;21385;50.878;8.050;2023-03-01T10:48:13;8.20;77.60
35258;DHT22;21385;50.878;8.050;2023-03-01T10:51:17;8.20;77.40
35258;DHT22;21385;50.878;8.050;2023-03-01T10:53:41;8.30;76.10
35258;DHT22;21385;50.878;8.050;2023-03-01T10:56:12;8.30;75.60
35258;DHT22;21385;50.878;8.050;2023-03-01T10:59:01;8.40;72.80
35258;DHT22;21385;50.878;8.050;2023-03-01T11:01:29;8.40;74.00
35258;DHT22;21385;50.878;8.050;2023-03-01T11:06:36;8.70;71.40
35258;DHT22;21385;50.878;8.050;2023-03-01T11:11:41;9.00;70.20
35258;DHT22;21385;50.878;8.050;2023-03-01T11:14:24;9.20;70.60
35258;DHT22;21385;50.878;8.050;2023-03-01T11:17:05;9.40;69.30
35258;DHT22;21385;50.878;8.050;2023-03-01T11:19:32;9.70;69.00
35258;DHT22;21385;50.878;8.050;2023-03-01T11:24:48;10.20;69.40
35258;DHT22;21385;50.878;8.050;2023-03-01T11:27:38;10.50;64.30
35258;DHT22;21385;50.878;8.050;2023-03-01T11:30:21;10.80;63.00
35258;DHT22;21385;50.878;8.050;2023-03-01T11:32:52;10.90;63.40
35258;DHT22;21385;50.878;8.050;2023-03-01T11:35:21;11.20;59.40
35258;DHT22;21385;50.878;8.050;2023-03-01T11:40:35;11.60;57.60
35258;DHT22;21385;50.878;8.050;2023-03-01T11:49:18;12.30;55.00
35258;DHT22;21385;50.878;8.050;2023-03-01T11:57:00;12.90;52.50
35258;DHT22;21385;50.878;8.050;2023-03-01T12:10:29;14.10;49.80
35258;DHT22;21385;50.878;8.050;2023-03-01T12:13:08;14.30;50.10
35258;DHT22;21385;50.878;8.050;2023-03-01T12:21:02;14.50;47.30
35258;DHT22;21385;50.878;8.050;2023-03-01T12:37:23;15.10;42.70
35258;DHT22;21385;50.878;8.050;2023-03-01T12:42:40;15.30;42.40
35258;DHT22;21385;50.878;8.050;2023-03-01T12:50:52;16.20;40.30
35258;DHT22;21385;50.878;8.050;2023-03-01T12:53:28;16.20;40.50
35258;DHT22;21385;50.878;8.050;2023-03-01T12:55:59;16.20;38.60
35258;DHT22;21385;50.878;8.050;2023-03-01T13:01:40;16.40;36.70
35258;DHT22;21385;50.878;8.050;2023-03-01T13:07:19;16.50;36.50
35258;DHT22;21385;50.878;8.050;2023-03-01T13:20:17;17.60;35.70
35258;DHT22;21385;50.878;8.050;2023-03-01T13:22:45;17.80;35.60
35258;DHT22;21385;50.878;8.050;2023-03-01T13:25:19;17.90;36.70
35258;DHT22;21385;50.878;8.050;2023-03-01T13:27:46;17.90;35.50
35258;DHT22;21385;50.878;8.050;2023-03-01T13:30:39;18.00;35.30
35258;DHT22;21385;50.878;8.050;2023-03-01T13:35:55;18.40;34.00
35258;DHT22;21385;50.878;8.050;2023-03-01T13:41:08;18.60;33.30
35258;DHT22;21385;50.878;8.050;2023-03-01T13:43:39;18.80;32.90
35258;DHT22;21385;50.878;8.050;2023-03-01T13:46:18;19.00;33.20
35258;DHT22;21385;50.878;8.050;2023-03-01T13:48:49;19.20;32.90
35258;DHT22;21385;50.878;8.050;2023-03-01T13:51:16;19.30;32.00
35258;DHT22;21385;50.878;8.050;2023-03-01T13:53:46;19.50;32.60
35258;DHT22;21385;50.878;8.050;2023-03-01T13:56:55;19.40;32.90
35258;DHT22;21385;50.878;8.050;2023-03-01T13:59:04;19.30;32.90
35258;DHT22;21385;50.878;8.050;2023-03-01T14:01:35;19.20;34.00
35258;DHT22;21385;50.878;8.050;2023-03-01T14:04:03;19.30;34.10
35258;DHT22;21385;50.878;8.050;2023-03-01T14:06:31;19.50;33.50
35258;DHT22;21385;50.878;8.050;2023-03-01T14:09:10;19.70;32.70
35258;DHT22;21385;50.878;8.050;2023-03-01T14:19:59;20.00;32.60
35258;DHT22;21385;50.878;8.050;2023-03-01T14:22:44;20.00;32.90
35258;DHT22;21385;50.878;8.050;2023-03-01T14:28:04;20.00;32.90
35258;DHT22;21385;50.878;8.050;2023-03-01T14:30:38;20.00;32.00
35258;DHT22;21385;50.878;8.050;2023-03-01T14:33:17;19.90;32.10
35258;DHT22;21385;50.878;8.050;2023-03-01T14:35:56;20.10;31.60
35258;DHT22;21385;50.878;8.050;2023-03-01T14:38:28;20.20;31.90
35258;DHT22;21385;50.878;8.050;2023-03-01T14:40:58;20.00;31.90
35258;DHT22;21385;50.878;8.050;2023-03-01T14:43:24;19.40;32.60
35258;DHT22;21385;50.878;8.050;2023-03-01T14:45:51;19.30;33.10
35258;DHT22;21385;50.878;8.050;2023-03-01T14:48:18;19.20;33.30
35258;DHT22;21385;50.878;8.050;2023-03-01T14:50:44;19.40;32.20
35258;DHT22;21385;50.878;8.050;2023-03-01T14:53:19;19.40;32.00
35258;DHT22;21385;50.878;8.050;2023-03-01T14:55:54;19.30;31.90
35258;DHT22;21385;50.878;8.050;2023-03-01T14:58:23;19.30;31.60
35258;DHT22;21385;50.878;8.050;2023-03-01T15:01:01;19.30;32.30
35258;DHT22;21385;50.878;8.050;2023-03-01T15:06:03;19.30;32.00
35258;DHT22;21385;50.878;8.050;2023-03-01T15:08:31;19.00;31.60
35258;DHT22;21385;50.878;8.050;2023-03-01T15:11:16;18.70;32.30
35258;DHT22;21385;50.878;8.050;2023-03-01T15:13:42;18.50;32.10
35258;DHT22;21385;50.878;8.050;2023-03-01T15:16:11;18.50;33.10
35258;DHT22;21385;50.878;8.050;2023-03-01T15:18:38;18.40;32.20
35258;DHT22;21385;50.878;8.050;2023-03-01T15:21:10;18.50;32.50
35258;DHT22;21385;50.878;8.050;2023-03-01T15:23:40;18.70;32.00
35258;DHT22;21385;50.878;8.050;2023-03-01T15:28:39;18.80;31.50
35258;DHT22;21385;50.878;8.050;2023-03-01T15:31:24;18.90;31.80
35258;DHT22;21385;50.878;8.050;2023-03-01T15:33:51;19.20;58.80
35258;DHT22;21385;50.878;8.050;2023-03-01T15:38:56;19.20;31.90
35258;DHT22;21385;50.878;8.050;2023-03-01T15:41:27;19.20;32.30
35258;DHT22;21385;50.878;8.050;2023-03-01T15:43:56;19.20;32.30
35258;DHT22;21385;50.878;8.050;2023-03-01T15:46:29;19.20;32.20
35258;DHT22;21385;50.878;8.050;2023-03-01T15:48:59;19.40;32.00
35258;DHT22;21385;50.878;8.050;2023-03-01T15:51:31;19.30;31.10
35258;DHT22;21385;50.878;8.050;2023-03-01T15:54:00;19.10;31.30
35258;DHT22;21385;50.878;8.050;2023-03-01T15:56:26;18.90;31.50
35258;DHT22;21385;50.878;8.050;2023-03-01T15:58:52;18.80;31.90
35258;DHT22;21385;50.878;8.050;2023-03-01T16:01:17;18.60;31.80
35258;DHT22;21385;50.878;8.050;2023-03-01T16:03:44;18.50;31.90
35258;DHT22;21385;50.878;8.050;2023-03-01T16:06:10;18.50;32.20
35258;DHT22;21385;50.878;8.050;2023-03-01T16:08:37;18.60;33.00
35258;DHT22;21385;50.878;8.050;2023-03-01T16:11:04;18.70;31.90
35258;DHT22;21385;50.878;8.050;2023-03-01T16:13:31;18.60;31.90
35258;DHT22;21385;50.878;8.050;2023-03-01T16:15:57;18.20;31.80
35258;DHT22;21385;50.878;8.050;2023-03-01T16:18:23;17.90;32.80
35258;DHT22;21385;50.878;8.050;2023-03-01T16:20:49;17.80;33.10
35258;DHT22;21385;50.878;8.050;2023-03-01T16:23:15;17.70;33.30
35258;DHT22;21385;50.878;8.050;2023-03-01T16:25:41;17.50;33.10
35258;DHT22;21385;50.878;8.050;2023-03-01T16:28:06;17.30;33.70
35258;DHT22;21385;50.878;8.050;2023-03-01T16:30:36;17.10;33.50
35258;DHT22;21385;50.878;8.050;2023-03-01T16:33:03;16.90;34.00
35258;DHT22;21385;50.878;8.050;2023-03-01T16:35:32;16.80;34.00
35258;DHT22;21385;50.878;8.050;2023-03-01T16:37:59;16.60;34.40
35258;DHT22;21385;50.878;8.050;2023-03-01T16:40:27;16.30;34.40
35258;DHT22;21385;50.878;8.050;2023-03-01T16:42:54;15.90;35.00
35258;DHT22;21385;50.878;8.050;2023-03-01T16:45:22;15.80;35.50
35258;DHT22;21385;50.878;8.050;2023-03-01T16:47:47;15.60;35.90
35258;DHT22;21385;50.878;8.050;2023-03-01T16:50:13;15.60;36.00
35258;DHT22;21385;50.878;8.050;2023-03-01T16:52:39;15.20;35.90
35258;DHT22;21385;50.878;8.050;2023-03-01T16:55:06;14.90;36.40
35258;DHT22;21385;50.878;8.050;2023-03-01T16:57:34;14.70;37.20
35258;DHT22;21385;50.878;8.050;2023-03-01T17:00:00;14.50;37.40
35258;DHT22;21385;50.878;8.050;2023-03-01T17:02:25;13.90;37.70
35258;DHT22;21385;50.878;8.050;2023-03-01T17:04:55;13.50;38.60
35258;DHT22;21385;50.878;8.050;2023-03-01T17:07:21;13.10;39.20
35258;DHT22;21385;50.878;8.050;2023-03-01T17:09:47;12.70;40.00
35258;DHT22;21385;50.878;8.050;2023-03-01T17:12:13;12.30;41.00
35258;DHT22;21385;50.878;8.050;2023-03-01T17:14:40;11.90;41.40
35258;DHT22;21385;50.878;8.050;2023-03-01T17:17:07;11.40;41.90
35258;DHT22;21385;50.878;8.050;2023-03-01T17:19:33;11.00;43.10
35258;DHT22;21385;50.878;8.050;2023-03-01T17:22:03;10.70;43.50
35258;DHT22;21385;50.878;8.050;2023-03-01T17:24:33;10.40;44.20
35258;DHT22;21385;50.878;8.050;2023-03-01T17:26:58;10.20;44.80
35258;DHT22;21385;50.878;8.050;2023-03-01T17:29:24;10.00;45.30
35258;DHT22;21385;50.878;8.050;2023-03-01T17:31:49;9.80;45.40
35258;DHT22;21385;50.878;8.050;2023-03-01T17:34:15;9.70;45.50
35258;DHT22;21385;50.878;8.050;2023-03-01T17:36:41;9.50;45.70
35258;DHT22;21385;50.878;8.050;2023-03-01T17:39:09;9.40;46.30
35258;DHT22;21385;50.878;8.050;2023-03-01T17:41:35;9.10;47.30
35258;DHT22;21385;50.878;8.050;2023-03-01T17:44:01;8.70;48.10
35258;DHT22;21385;50.878;8.050;2023-03-01T17:46:26;8.60;48.20
35258;DHT22;21385;50.878;8.050;2023-03-01T17:48:52;8.40;48.60
35258;DHT22;21385;50.878;8.050;2023-03-01T17:51:17;8.20;49.00
35258;DHT22;21385;50.878;8.050;2023-03-01T17:53:43;8.00;49.80
35258;DHT22;21385;50.878;8.050;2023-03-01T17:56:09;7.90;50.00
35258;DHT22;21385;50.878;8.050;2023-03-01T17:58:34;7.70;49.70
35258;DHT22;21385;50.878;8.050;2023-03-01T18:01:08;7.50;50.40
35258;DHT22;21385;50.878;8.050;2023-03-01T18:03:33;7.40;50.60
35258;DHT22;21385;50.878;8.050;2023-03-01T18:05:59;7.30;50.80
35258;DHT22;21385;50.878;8.050;2023-03-01T18:08:25;7.20;51.10
35258;DHT22;21385;50.878;8.050;2023-03-01T18:10:57;7.00;51.50